Time,TemperatureF,DewpointF,PressureIn,WindDirection,WindDirectionDegrees,WindSpeedMPH,WindSpeedGustMPH,Humidity,HourlyPrecipIn,Conditions,Clouds,dailyrainin,SoftwareType,DateUTC
2013-02-19 00:01:00,19.0,0.0,29.98,North,-999,-999.0,-999.0,43,-99.99,,,-99.99,,2013-02-19 07:01:00,
2013-02-19 00:11:00,19.0,0.0,29.98,North,-999,-999.0,-999.0,43,-99.99,,,-99.99,,2013-02-19 07:11:00,
2013-02-19 00:21:00,17.0,0.0,29.99,North,-999,-999.0,-999.0,47,-99.99,,,-99.99,,2013-02-19 07:21:00,
2013-02-19 00:32:00,17.0,0.0,29.99,North,-999,-999.0,-999.0,47,-99.99,,,-99.99,,2013-02-19 07:32:00,
2013-02-19 00:42:00,17.0,0.0,29.99,North,-999,-999.0,-999.0,47,-99.99,,,-99.99,,2013-02-19 07:42:00,
2013-02-19 00:52:00,17.0,0.0,29.99,North,-999,-999.0,-999.0,47,-99.99,,,-99.99,,2013-02-19 07:52:00,
2013-02-19 01:02:00,17.0,0.0,29.99,North,-999,-999.0,-999.0,47,-99.99,,,-99.99,,2013-02-19 08:02:00,
2013-02-19 01:11:00,17.0,0.0,29.99,North,-999,-999.0,-999.0,47,-99.99,,,-99.99,,2013-02-19 08:11:00,
2013-02-19 01:21:00,14.0,0.0,29.99,North,-999,-999.0,-999.0,53,-99.99,,,-99.99,,2013-02-19 08:21:00,
2013-02-19 01:31:00,14.0,0.0,29.99,North,-999,-999.0,-999.0,53,-99.99,,,-99.99,,2013-02-19 08:31:00,
2013-02-19 01:42:00,17.0,0.0,29.99,North,-999,-999.0,-999.0,47,-99.99,,,-99.99,,2013-02-19 08:42:00,
2013-02-19 01:52:00,17.0,0.0,29.99,North,-999,-999.0,-999.0,47,-99.99,,,-99.99,,2013-02-19 08:52:00,
2013-02-19 02:01:00,17.0,0.0,29.99,North,-999,-999.0,-999.0,47,-99.99,,,-99.99,,2013-02-19 09:01:00,
2013-02-19 02:11:00,17.0,0.0,29.99,North,-999,-999.0,-999.0,47,-99.99,,,-99.99,,2013-02-19 09:11:00,
2013-02-19 02:21:00,18.0,-1.0,29.98,North,-999,-999.0,-999.0,42,-99.99,,,-99.99,,2013-02-19 09:21:00,
2013-02-19 02:32:00,18.0,-1.0,29.98,North,-999,-999.0,-999.0,42,-99.99,,,-99.99,,2013-02-19 09:32:00,
2013-02-19 02:42:00,16.0,-1.0,29.97,North,-999,-999.0,-999.0,46,-99.99,,,-99.99,,2013-02-19 09:42:00,
2013-02-19 02:52:00,16.0,-1.0,29.97,North,-999,-999.0,-999.0,46,-99.99,,,-99.99,,2013-02-19 09:52:00,
2013-02-19 03:02:00,16.0,-1.0,29.97,North,-999,-999.0,-999.0,46,-99.99,,,-99.99,,2013-02-19 10:02:00,
2013-02-19 03:11:00,13.0,-1.0,29.96,North,-999,-999.0,-999.0,52,-99.99,,,-99.99,,2013-02-19 10:11:00,
2013-02-19 03:21:00,13.0,-1.0,29.96,North,-999,-999.0,-999.0,52,-99.99,,,-99.99,,2013-02-19 10:21:00,
2013-02-19 03:32:00,13.0,-1.0,29.96,North,-999,-999.0,-999.0,52,-99.99,,,-99.99,,2013-02-19 10:32:00,
2013-02-19 03:42:00,13.0,-2.0,29.95,North,-999,-999.0,-999.0,50,-99.99,,,-99.99,,2013-02-19 10:42:00,
2013-02-19 03:52:00,13.0,-2.0,29.95,North,-999,-999.0,-999.0,50,-99.99,,,-99.99,,2013-02-19 10:52:00,
2013-02-19 04:01:00,13.0,-2.0,29.95,North,-999,-999.0,-999.0,50,-99.99,,,-99.99,,2013-02-19 11:01:00,
2013-02-19 04:11:00,8.0,-3.0,29.95,North,-999,-999.0,-999.0,61,-99.99,,,-99.99,,2013-02-19 11:11:00,
2013-02-19 04:21:00,8.0,-3.0,29.95,North,-999,-999.0,-999.0,61,-99.99,,,-99.99,,2013-02-19 11:21:00,
2013-02-19 04:42:00,8.0,-3.0,29.95,North,-999,-999.0,-999.0,61,-99.99,,,-99.99,,2013-02-19 11:42:00,
2013-02-19 04:52:00,7.0,-2.0,29.94,North,-999,-999.0,-999.0,64,-99.99,,,-99.99,,2013-02-19 11:52:00,
2013-02-19 05:02:00,7.0,-2.0,29.94,North,-999,-999.0,-999.0,64,-99.99,,,-99.99,,2013-02-19 12:02:00,
2013-02-19 05:12:00,9.0,-3.0,29.94,North,-999,-999.0,-999.0,59,-99.99,,,-99.99,,2013-02-19 12:12:00,
2013-02-19 05:22:00,9.0,-3.0,29.94,North,-999,-999.0,-999.0,59,-99.99,,,-99.99,,2013-02-19 12:22:00,
2013-02-19 05:32:00,9.0,-3.0,29.94,North,-999,-999.0,-999.0,59,-99.99,,,-99.99,,2013-02-19 12:32:00,
2013-02-19 05:42:00,7.0,-2.0,29.94,North,-999,-999.0,-999.0,63,-99.99,,,-99.99,,2013-02-19 12:42:00,
2013-02-19 05:52:00,7.0,-2.0,29.94,North,-999,-999.0,-999.0,63,-99.99,,,-99.99,,2013-02-19 12:52:00,
2013-02-19 06:02:00,7.0,-2.0,29.94,North,-999,-999.0,-999.0,63,-99.99,,,-99.99,,2013-02-19 13:02:00,
2013-02-19 06:11:00,7.0,-3.0,29.94,North,-999,-999.0,-999.0,63,-99.99,,,-99.99,,2013-02-19 13:11:00,
2013-02-19 06:22:00,7.0,-3.0,29.94,North,-999,-999.0,-999.0,63,-99.99,,,-99.99,,2013-02-19 13:22:00,
2013-02-19 06:42:00,11.0,-2.0,29.93,North,-999,-999.0,-999.0,57,-99.99,,,-99.99,,2013-02-19 13:42:00,
2013-02-19 06:52:00,11.0,-2.0,29.93,North,-999,-999.0,-999.0,57,-99.99,,,-99.99,,2013-02-19 13:52:00,
2013-02-19 07:01:00,11.0,-2.0,29.93,North,-999,-999.0,-999.0,57,-99.99,,,-99.99,,2013-02-19 14:01:00,
2013-02-19 07:11:00,11.0,-2.0,29.93,North,-999,-999.0,-999.0,56,-99.99,,,-99.99,,2013-02-19 14:11:00,
2013-02-19 07:21:00,11.0,-2.0,29.93,North,-999,-999.0,-999.0,56,-99.99,,,-99.99,,2013-02-19 14:21:00,
2013-02-19 07:32:00,11.0,-2.0,29.93,North,-999,-999.0,-999.0,56,-99.99,,,-99.99,,2013-02-19 14:32:00,
2013-02-19 07:42:00,14.0,0.0,29.94,North,-999,-999.0,-999.0,53,-99.99,,,-99.99,,2013-02-19 14:42:00,
2013-02-19 07:52:00,14.0,0.0,29.94,North,-999,-999.0,-999.0,53,-99.99,,,-99.99,,2013-02-19 14:52:00,
2013-02-19 08:01:00,14.0,0.0,29.94,North,-999,-999.0,-999.0,53,-99.99,,,-99.99,,2013-02-19 15:01:00,
2013-02-19 08:11:00,16.0,0.0,29.94,North,-999,-999.0,-999.0,48,-99.99,,,-99.99,,2013-02-19 15:11:00,
2013-02-19 08:21:00,16.0,0.0,29.94,North,-999,-999.0,-999.0,48,-99.99,,,-99.99,,2013-02-19 15:21:00,
2013-02-19 08:32:00,16.0,0.0,29.94,North,-999,-999.0,-999.0,48,-99.99,,,-99.99,,2013-02-19 15:32:00,
2013-02-19 08:42:00,18.0,2.0,29.94,North,-999,-999.0,-999.0,48,-99.99,,,-99.99,,2013-02-19 15:42:00,
2013-02-19 08:52:00,18.0,2.0,29.94,North,-999,-999.0,-999.0,48,-99.99,,,-99.99,,2013-02-19 15:52:00,
2013-02-19 09:02:00,18.0,2.0,29.94,North,-999,-999.0,-999.0,48,-99.99,,,-99.99,,2013-02-19 16:02:00,
2013-02-19 09:11:00,18.0,2.0,29.94,North,-999,-999.0,-999.0,48,-99.99,,,-99.99,,2013-02-19 16:11:00,
2013-02-19 09:21:00,22.0,2.0,29.93,North,-999,-999.0,-999.0,41,-99.99,,,-99.99,,2013-02-19 16:21:00,
2013-02-19 09:32:00,22.0,2.0,29.93,North,-999,-999.0,-999.0,41,-99.99,,,-99.99,,2013-02-19 16:32:00,
2013-02-19 09:41:00,27.0,-5.0,29.92,North,-999,-999.0,-999.0,24,-99.99,,,-99.99,,2013-02-19 16:41:00,
2013-02-19 09:51:00,27.0,-5.0,29.92,North,-999,-999.0,-999.0,24,-99.99,,,-99.99,,2013-02-19 16:51:00,
2013-02-19 10:01:00,27.0,-5.0,29.92,North,-999,-999.0,-999.0,24,-99.99,,,-99.99,,2013-02-19 17:01:00,
2013-02-19 10:11:00,31.0,-2.0,29.91,North,-999,-999.0,-999.0,23,-99.99,,,-99.99,,2013-02-19 17:11:00,
2013-02-19 10:21:00,31.0,-2.0,29.91,North,-999,-999.0,-999.0,23,-99.99,,,-99.99,,2013-02-19 17:21:00,
2013-02-19 10:32:00,31.0,-2.0,29.91,North,-999,-999.0,-999.0,23,-99.99,,,-99.99,,2013-02-19 17:32:00,
2013-02-19 10:42:00,31.0,-10.0,29.90,North,-999,-999.0,-999.0,15,-99.99,,,-99.99,,2013-02-19 17:42:00,
2013-02-19 10:52:00,31.0,-10.0,29.90,North,-999,-999.0,-999.0,15,-99.99,,,-99.99,,2013-02-19 17:52:00,
2013-02-19 11:02:00,31.0,-99.9,29.90,North,-999,-999.0,-999.0,15,-99.99,,,-99.99,,2013-02-19 18:02:00,
2013-02-19 11:11:00,31.0,-99.9,29.90,North,-999,-999.0,-999.0,15,-99.99,,,-99.99,,2013-02-19 18:11:00,
2013-02-19 11:21:00,33.0,-7.0,29.89,North,-999,-999.0,-999.0,17,-99.99,,,-99.99,,2013-02-19 18:21:00,
2013-02-19 11:31:00,33.0,-7.0,29.89,North,-999,-999.0,-999.0,17,-99.99,,,-99.99,,2013-02-19 18:31:00,
2013-02-19 11:42:00,34.0,-7.0,29.88,North,-999,-999.0,-999.0,16,-99.99,,,-99.99,,2013-02-19 18:42:00,
2013-02-19 11:52:00,34.0,-7.0,29.88,North,-999,-999.0,-999.0,16,-99.99,,,-99.99,,2013-02-19 18:52:00,
2013-02-19 12:01:00,34.0,-7.0,29.88,North,-999,-999.0,-999.0,16,-99.99,,,-99.99,,2013-02-19 19:01:00,
2013-02-19 12:11:00,36.0,-8.0,29.86,North,-999,-999.0,-999.0,14,-99.99,,,-99.99,,2013-02-19 19:11:00,
2013-02-19 12:21:00,36.0,-8.0,29.86,North,-999,-999.0,-999.0,14,-99.99,,,-99.99,,2013-02-19 19:21:00,
2013-02-19 12:31:00,36.0,-8.0,29.86,North,-999,-999.0,-999.0,14,-99.99,,,-99.99,,2013-02-19 19:31:00,
2013-02-19 12:42:00,36.0,-8.0,29.86,North,-999,-999.0,-999.0,14,-99.99,,,-99.99,,2013-02-19 19:42:00,
2013-02-19 12:52:00,39.0,-6.0,29.84,North,-999,-999.0,-999.0,13,-99.99,,,-99.99,,2013-02-19 19:52:00,
2013-02-19 13:01:00,39.0,-6.0,29.84,North,-999,-999.0,-999.0,13,-99.99,,,-99.99,,2013-02-19 20:01:00,
2013-02-19 13:12:00,39.0,-5.0,29.82,North,-999,-999.0,-999.0,15,-99.99,,,-99.99,,2013-02-19 20:12:00,
2013-02-19 13:21:00,39.0,-5.0,29.82,North,-999,-999.0,-999.0,15,-99.99,,,-99.99,,2013-02-19 20:21:00,
2013-02-19 13:32:00,39.0,-5.0,29.82,North,-999,-999.0,-999.0,15,-99.99,,,-99.99,,2013-02-19 20:32:00,
2013-02-19 13:42:00,39.0,-6.0,29.81,North,-999,-999.0,-999.0,14,-99.99,,,-99.99,,2013-02-19 20:42:00,
2013-02-19 13:52:00,39.0,-6.0,29.81,North,-999,-999.0,-999.0,14,-99.99,,,-99.99,,2013-02-19 20:52:00,
2013-02-19 14:02:00,39.0,-6.0,29.81,North,-999,-999.0,-999.0,14,-99.99,,,-99.99,,2013-02-19 21:02:00,
2013-02-19 14:11:00,39.0,-6.0,29.81,North,-999,-999.0,-999.0,14,-99.99,,,-99.99,,2013-02-19 21:11:00,
2013-02-19 14:21:00,36.0,-2.0,29.81,North,-999,-999.0,-999.0,19,-99.99,,,-99.99,,2013-02-19 21:21:00,
2013-02-19 14:32:00,36.0,-2.0,29.81,North,-999,-999.0,-999.0,19,-99.99,,,-99.99,,2013-02-19 21:32:00,
2013-02-19 14:42:00,36.0,-2.0,29.81,North,-999,-999.0,-999.0,19,-99.99,,,-99.99,,2013-02-19 21:42:00,
2013-02-19 14:51:00,34.0,-1.0,29.81,North,-999,-999.0,-999.0,21,-99.99,,,-99.99,,2013-02-19 21:51:00,
2013-02-19 15:02:00,34.0,-1.0,29.81,North,-999,-999.0,-999.0,21,-99.99,,,-99.99,,2013-02-19 22:02:00,
2013-02-19 15:11:00,37.0,-1.0,29.80,North,-999,-999.0,-999.0,18,-99.99,,,-99.99,,2013-02-19 22:11:00,
2013-02-19 15:21:00,37.0,-1.0,29.80,North,-999,-999.0,-999.0,18,-99.99,,,-99.99,,2013-02-19 22:21:00,
2013-02-19 15:32:00,37.0,-1.0,29.80,North,-999,-999.0,-999.0,18,-99.99,,,-99.99,,2013-02-19 22:32:00,
2013-02-19 15:41:00,35.0,-4.0,29.80,North,-999,-999.0,-999.0,18,-99.99,,,-99.99,,2013-02-19 22:41:00,
2013-02-19 15:51:00,35.0,-4.0,29.80,North,-999,-999.0,-999.0,18,-99.99,,,-99.99,,2013-02-19 22:51:00,
2013-02-19 16:01:00,35.0,-4.0,29.80,North,-999,-999.0,-999.0,18,-99.99,,,-99.99,,2013-02-19 23:01:00,
2013-02-19 16:11:00,34.0,-1.0,29.79,North,-999,-999.0,-999.0,22,-99.99,,,-99.99,,2013-02-19 23:11:00,
2013-02-19 16:21:00,34.0,-1.0,29.79,North,-999,-999.0,-999.0,22,-99.99,,,-99.99,,2013-02-19 23:21:00,
2013-02-19 16:30:00,30.0,-4.0,29.79,North,-999,-999.0,-999.0,22,-99.99,,,-99.99,,2013-02-19 23:30:00,
2013-02-19 16:32:00,34.0,-1.0,29.79,North,-999,-999.0,-999.0,22,-99.99,,,-99.99,,2013-02-19 23:32:00,
2013-02-19 16:42:00,30.0,-4.0,29.79,North,-999,-999.0,-999.0,22,-99.99,,,-99.99,,2013-02-19 23:42:00,
2013-02-19 16:52:00,30.0,-4.0,29.79,North,-999,-999.0,-999.0,22,-99.99,,,-99.99,,2013-02-19 23:52:00,
2013-02-19 17:42:00,26.0,3.0,29.79,North,-999,-999.0,-999.0,36,-99.99,,,-99.99,,2013-02-20 00:42:00,
2013-02-19 17:52:00,26.0,3.0,29.79,North,-999,-999.0,-999.0,36,-99.99,,,-99.99,,2013-02-20 00:52:00,
2013-02-19 18:11:00,26.0,3.0,29.79,North,-999,-999.0,-999.0,36,-99.99,,,-99.99,,2013-02-20 01:11:00,
2013-02-19 18:21:00,25.0,7.0,29.78,North,-999,-999.0,-999.0,44,-99.99,,,-99.99,,2013-02-20 01:21:00,
2013-02-19 18:32:00,25.0,7.0,29.78,North,-999,-999.0,-999.0,44,-99.99,,,-99.99,,2013-02-20 01:32:00,
2013-02-19 18:42:00,25.0,8.0,29.79,North,-999,-999.0,-999.0,47,-99.99,,,-99.99,,2013-02-20 01:42:00,
2013-02-19 18:51:00,25.0,8.0,29.79,North,-999,-999.0,-999.0,47,-99.99,,,-99.99,,2013-02-20 01:51:00,
2013-02-19 19:02:00,25.0,8.0,29.79,North,-999,-999.0,-999.0,47,-99.99,,,-99.99,,2013-02-20 02:02:00,
2013-02-19 19:11:00,25.0,8.0,29.80,North,-999,-999.0,-999.0,48,-99.99,,,-99.99,,2013-02-20 02:11:00,
2013-02-19 19:21:00,25.0,8.0,29.80,North,-999,-999.0,-999.0,48,-99.99,,,-99.99,,2013-02-20 02:21:00,
2013-02-19 19:32:00,25.0,8.0,29.80,North,-999,-999.0,-999.0,48,-99.99,,,-99.99,,2013-02-20 02:32:00,
2013-02-19 19:42:00,24.0,8.0,29.78,North,-999,-999.0,-999.0,49,-99.99,,,-99.99,,2013-02-20 02:42:00,
2013-02-19 19:52:00,24.0,8.0,29.78,North,-999,-999.0,-999.0,49,-99.99,,,-99.99,,2013-02-20 02:52:00,
2013-02-19 20:02:00,24.0,8.0,29.78,North,-999,-999.0,-999.0,49,-99.99,,,-99.99,,2013-02-20 03:02:00,
2013-02-19 20:12:00,24.0,8.0,29.78,North,-999,-999.0,-999.0,49,-99.99,,,-99.99,,2013-02-20 03:12:00,
2013-02-19 20:22:00,24.0,8.0,29.78,North,-999,-999.0,-999.0,49,-99.99,,,-99.99,,2013-02-20 03:22:00,
2013-02-19 20:32:00,24.0,8.0,29.78,North,-999,-999.0,-999.0,49,-99.99,,,-99.99,,2013-02-20 03:32:00,
2013-02-19 20:42:00,24.0,8.0,29.78,North,-999,-999.0,-999.0,49,-99.99,,,-99.99,,2013-02-20 03:42:00,
2013-02-19 20:51:00,25.0,8.0,29.77,North,-999,-999.0,-999.0,48,-99.99,,,-99.99,,2013-02-20 03:51:00,
2013-02-19 21:01:00,25.0,8.0,29.77,North,-999,-999.0,-999.0,48,-99.99,,,-99.99,,2013-02-20 04:01:00,
2013-02-19 21:11:00,25.0,8.0,29.77,North,-999,-999.0,-999.0,48,-99.99,,,-99.99,,2013-02-20 04:11:00,
2013-02-19 21:21:00,24.0,8.0,29.77,North,-999,-999.0,-999.0,50,-99.99,,,-99.99,,2013-02-20 04:21:00,
2013-02-19 21:31:00,24.0,8.0,29.77,North,-999,-999.0,-999.0,50,-99.99,,,-99.99,,2013-02-20 04:31:00,
2013-02-19 21:42:00,24.0,8.0,29.77,North,-999,-999.0,-999.0,50,-99.99,,,-99.99,,2013-02-20 04:42:00,
2013-02-19 21:52:00,24.0,9.0,29.77,North,-999,-999.0,-999.0,51,-99.99,,,-99.99,,2013-02-20 04:52:00,
2013-02-19 22:02:00,24.0,9.0,29.77,North,-999,-999.0,-999.0,51,-99.99,,,-99.99,,2013-02-20 05:02:00,
2013-02-19 22:12:00,23.0,8.0,29.76,North,-999,-999.0,-999.0,53,-99.99,,,-99.99,,2013-02-20 05:12:00,
2013-02-19 22:22:00,23.0,8.0,29.76,North,-999,-999.0,-999.0,53,-99.99,,,-99.99,,2013-02-20 05:22:00,
2013-02-19 22:30:00,21.0,9.0,29.75,North,-999,-999.0,-999.0,58,-99.99,,,-99.99,,2013-02-20 05:30:00,
2013-02-19 22:32:00,23.0,8.0,29.76,North,-999,-999.0,-999.0,53,-99.99,,,-99.99,,2013-02-20 05:32:00,
2013-02-19 22:43:00,21.0,9.0,29.75,North,-999,-999.0,-999.0,58,-99.99,,,-99.99,,2013-02-20 05:43:00,
2013-02-19 22:52:00,21.0,9.0,29.75,North,-999,-999.0,-999.0,58,-99.99,,,-99.99,,2013-02-20 05:52:00,
2013-02-19 23:01:00,21.0,9.0,29.75,North,-999,-999.0,-999.0,58,-99.99,,,-99.99,,2013-02-20 06:01:00,
2013-02-19 23:11:00,21.0,9.0,29.75,North,-999,-999.0,-999.0,58,-99.99,,,-99.99,,2013-02-20 06:11:00,
2013-02-19 23:21:00,21.0,9.0,29.75,North,-999,-999.0,-999.0,58,-99.99,,,-99.99,,2013-02-20 06:21:00,